sensor_id;sensor_type;location;lat;lon;timestamp;pressure;altitude;pressure_sealevel;temperature;humidity
57374;BME280;43964;53.890;25.340;2023-01-25T00:01:54;1043.4;;;1.6;58.5
57374;BME280;43964;53.890;25.340;2023-01-25T00:06:38;1043.3;;;1.5;58.3
57374;BME280;43964;53.890;25.340;2023-01-25T00:11:56;1043.2;;;1.5;58.4
57374;BME280;43964;53.890;25.340;2023-01-25T06:01:36;1043.2;;;1.5;58.4
57374;BME280;43964;53.890;25.340;2023-01-25T06:06:40;1043.2;;;1.5;58.4
57374;BME280;43964;53.890;25.340;2023-01-25T06:11:19;1043.2;;;1.5;58.4
57374;BME280;43964;53.890;25.340;2023-01-25T06:16:42;1043.2;;;1.5;58.4
57374;BME280;43964;53.890;25.340;2023-01-25T06:21:36;1043.2;;;1.5;58.4
57374;BME280;43964;53.890;25.340;2023-01-25T06:26:44;1043.2;;;1.5;58.4
57374;BME280;43964;53.890;25.340;2023-01-25T06:41:22;1040.7;;;1.5;60.7
57374;BME280;43964;53.890;25.340;2023-01-25T06:46:58;1040.7;;;1.4;60.7
57374;BME280;43964;53.890;25.340;2023-01-25T06:51:58;1040.6;;;1.3;60.8
57374;BME280;43964;53.890;25.340;2023-01-25T06:56:19;1040.6;;;1.3;60.8
57374;BME280;43964;53.890;25.340;2023-01-25T07:41:42;1040.6;;;1.3;60.8
57374;BME280;43964;53.890;25.340;2023-01-25T07:46:20;1040.4;;;2.1;60.5
57374;BME280;43964;53.890;25.340;2023-01-25T07:56:31;1040.2;;;2.4;60.3
57374;BME280;43964;53.890;25.340;2023-01-25T08:01:23;1040.2;;;2.4;60.2
57374;BME280;43964;53.890;25.340;2023-01-25T08:06:40;1040.2;;;2.4;60.1
57374;BME280;43964;53.890;25.340;2023-01-25T08:11:19;1040.1;;;2.5;60.1
57374;BME280;43964;53.890;25.340;2023-01-25T08:16:30;1040;;;2.6;59.9
57374;BME280;43964;53.890;25.340;2023-01-25T08:21:23;1039.9;;;2.8;59.9
57374;BME280;43964;53.890;25.340;2023-01-25T08:26:58;1039.8;;;2.8;59.9
57374;BME280;43964;53.890;25.340;2023-01-25T08:31:19;1039.7;;;2.8;59.8
57374;BME280;43964;53.890;25.340;2023-01-25T08:36:42;1039.7;;;2.7;59.9
57374;BME280;43964;53.890;25.340;2023-01-25T08:41:31;1039.7;;;2.8;59.9
57374;BME280;43964;53.890;25.340;2023-01-25T08:51:10;1039.7;;;3.1;59.7
57374;BME280;43964;53.890;25.340;2023-01-25T08:56:30;1039.7;;;3.2;59.6
57374;BME280;43964;53.890;25.340;2023-01-25T09:11:31;1039.7;;;3.4;59.4
57374;BME280;43964;53.890;25.340;2023-01-25T09:16:44;1039.7;;;3.4;59.3
57374;BME280;43964;53.890;25.340;2023-01-25T09:21:58;1039.6;;;3.3;59.4
57374;BME280;43964;53.890;25.340;2023-01-25T09:26:33;1039.6;;;3.3;59.4
57374;BME280;43964;53.890;25.340;2023-01-25T09:31:10;1039.6;;;3.3;59.4
57374;BME280;43964;53.890;25.340;2023-01-25T09:36:52;1039.4;;;3.3;59.2
57374;BME280;43964;53.890;25.340;2023-01-25T09:41:14;1039.4;;;3.3;59.2
57374;BME280;43964;53.890;25.340;2023-01-25T09:46:22;1039.3;;;3.3;59.4
57374;BME280;43964;53.890;25.340;2023-01-25T09:51:19;1039.2;;;3.5;59.3
57374;BME280;43964;53.890;25.340;2023-01-25T09:56:40;1039.2;;;3.5;59.3
57374;BME280;43964;53.890;25.340;2023-01-25T10:01:43;1039.1;;;3.5;59.3
57374;BME280;43964;53.890;25.340;2023-01-25T10:06:28;1039.1;;;3.6;59.3
57374;BME280;43964;53.890;25.340;2023-01-25T10:11:54;1039;;;3.5;59.1
57374;BME280;43964;53.890;25.340;2023-01-25T10:16:11;1039;;;3.3;59.3
57374;BME280;43964;53.890;25.340;2023-01-25T10:21:43;1038.9;;;3.5;59.4
57374;BME280;43964;53.890;25.340;2023-01-25T10:26:21;1038.8;;;3.7;59.1
57374;BME280;43964;53.890;25.340;2023-01-25T10:31:43;1038.8;;;3.7;59.1
57374;BME280;43964;53.890;25.340;2023-01-25T10:36:28;1038.7;;;3.7;59
57374;BME280;43964;53.890;25.340;2023-01-25T10:41:53;1038.6;;;4;58.7
57374;BME280;43964;53.890;25.340;2023-01-25T10:51:16;1038.5;;;4;58.7
57374;BME280;43964;53.890;25.340;2023-01-25T10:56:56;1038.4;;;4;58.5
57374;BME280;43964;53.890;25.340;2023-01-25T11:01:29;1038.3;;;4.1;58.5
57374;BME280;43964;53.890;25.340;2023-01-25T11:06:45;1038.3;;;4.2;58.4
57374;BME280;43964;53.890;25.340;2023-01-25T11:11:23;1038.2;;;3.8;58.6
57374;BME280;43964;53.890;25.340;2023-01-25T11:16:42;1038.2;;;3.5;58.4
57374;BME280;43964;53.890;25.340;2023-01-25T11:21:21;1038.2;;;3.3;58.5
57374;BME280;43964;53.890;25.340;2023-01-25T11:26:11;1038.1;;;3.4;58.5
57374;BME280;43964;53.890;25.340;2023-01-25T11:31:26;1038.1;;;3.4;58.5
57374;BME280;43964;53.890;25.340;2023-01-25T11:36:42;1038;;;3.3;58.5
57374;BME280;43964;53.890;25.340;2023-01-25T11:41:44;1037.7;;;3.3;58.7
57374;BME280;43964;53.890;25.340;2023-01-25T11:46:55;1037.7;;;3.3;58.6
57374;BME280;43964;53.890;25.340;2023-01-25T11:51:55;1037.7;;;3.3;58.6
57374;BME280;43964;53.890;25.340;2023-01-25T11:56:24;1037.6;;;3.3;58.8
57374;BME280;43964;53.890;25.340;2023-01-25T12:06:11;1037.3;;;3.6;58.7
57374;BME280;43964;53.890;25.340;2023-01-25T12:11:42;1037.3;;;3.6;58.7
57374;BME280;43964;53.890;25.340;2023-01-25T12:16:24;1037.3;;;3.7;58.8
57374;BME280;43964;53.890;25.340;2023-01-25T12:21:47;1037.2;;;3.8;58.7
57374;BME280;43964;53.890;25.340;2023-01-25T12:26:33;1037.2;;;4;58.7
57374;BME280;43964;53.890;25.340;2023-01-25T12:36:42;1037;;;3.9;58.7
57374;BME280;43964;53.890;25.340;2023-01-25T12:41:54;1037;;;3.9;58.7
57374;BME280;43964;53.890;25.340;2023-01-25T12:46:58;1037;;;3.9;58.7
57374;BME280;43964;53.890;25.340;2023-01-25T12:51:40;1037;;;3.9;58.7
57374;BME280;43964;53.890;25.340;2023-01-25T12:56:59;1036.8;;;4.3;58.9
57374;BME280;43964;53.890;25.340;2023-01-25T13:01:23;1036.8;;;3.9;58.7
57374;BME280;43964;53.890;25.340;2023-01-25T13:06:42;1036.7;;;3.6;58.9
57374;BME280;43964;53.890;25.340;2023-01-25T13:11:31;1036.7;;;3.4;59
57374;BME280;43964;53.890;25.340;2023-01-25T13:16:42;1036.6;;;3.4;59.3
57374;BME280;43964;53.890;25.340;2023-01-25T13:21:50;1036.5;;;3.3;59.2
57374;BME280;43964;53.890;25.340;2023-01-25T13:31:46;1036.3;;;3.1;59.1
57374;BME280;43964;53.890;25.340;2023-01-25T13:36:56;1036.3;;;3;59.4
57374;BME280;43964;53.890;25.340;2023-01-25T13:41:55;1036.2;;;2.8;59.5
57374;BME280;43964;53.890;25.340;2023-01-25T13:46:22;1036.2;;;2.5;59.8
57374;BME280;43964;53.890;25.340;2023-01-25T13:51:32;1036.2;;;2.5;59.9
57374;BME280;43964;53.890;25.340;2023-01-25T13:56:40;1036.2;;;2.6;60.1
57374;BME280;43964;53.890;25.340;2023-01-25T14:01:40;1036.1;;;2.7;60.2
57374;BME280;43964;53.890;25.340;2023-01-25T14:06:13;1036;;;2.6;60.1
57374;BME280;43964;53.890;25.340;2023-01-25T14:11:19;1036.1;;;2.4;60
57374;BME280;43964;53.890;25.340;2023-01-25T14:16:32;1036;;;2.4;60.6
57374;BME280;43964;53.890;25.340;2023-01-25T14:21:14;1035.9;;;2.5;60.8
57374;BME280;43964;53.890;25.340;2023-01-25T14:26:19;1035.9;;;2.4;60.5
57374;BME280;43964;53.890;25.340;2023-01-25T14:31:40;1035.9;;;2.3;60.9
57374;BME280;43964;53.890;25.340;2023-01-25T14:36:23;1035.9;;;2.3;61.1
57374;BME280;43964;53.890;25.340;2023-01-25T14:41:11;1035.9;;;2.3;61.1
57374;BME280;43964;53.890;25.340;2023-01-25T14:46:31;1035.8;;;2.3;61.1
57374;BME280;43964;53.890;25.340;2023-01-25T14:51:13;1035.8;;;2.3;61.1
57374;BME280;43964;53.890;25.340;2023-01-25T14:56:57;1035.7;;;2.2;61.3
57374;BME280;43964;53.890;25.340;2023-01-25T15:06:28;1035.7;;;2.2;61
57374;BME280;43964;53.890;25.340;2023-01-25T15:11:57;1035.8;;;2.1;61.4
57374;BME280;43964;53.890;25.340;2023-01-25T15:16:56;1035.8;;;2.2;61.5
57374;BME280;43964;53.890;25.340;2023-01-25T15:21:19;1035.7;;;2.3;61.5
57374;BME280;43964;53.890;25.340;2023-01-25T15:26:11;1035.6;;;2.3;61.6
57374;BME280;43964;53.890;25.340;2023-01-25T15:31:53;1035.5;;;2.3;61.9
57374;BME280;43964;53.890;25.340;2023-01-25T15:36:31;1035.5;;;2.3;61.9
57374;BME280;43964;53.890;25.340;2023-01-25T15:41:18;1035.5;;;2.2;61.8
57374;BME280;43964;53.890;25.340;2023-01-25T15:46:12;1035.5;;;2.1;62.1
57374;BME280;43964;53.890;25.340;2023-01-25T15:51:30;1035.5;;;2.2;62.2
57374;BME280;43964;53.890;25.340;2023-01-25T15:56:58;1035.5;;;2.2;62.2
57374;BME280;43964;53.890;25.340;2023-01-25T16:01:40;1035.4;;;2.3;62.2
57374;BME280;43964;53.890;25.340;2023-01-25T16:06:58;1035.4;;;2.3;62.1
57374;BME280;43964;53.890;25.340;2023-01-25T16:11:59;1035.4;;;2.3;62.1
57374;BME280;43964;53.890;25.340;2023-01-25T16:16:22;1035.3;;;2.1;62
57374;BME280;43964;53.890;25.340;2023-01-25T16:21:10;1035.2;;;2.2;62.2
57374;BME280;43964;53.890;25.340;2023-01-25T16:26:55;1035.3;;;2.3;62.3
57374;BME280;43964;53.890;25.340;2023-01-25T16:31:20;1035.2;;;2.3;62.6
57374;BME280;43964;53.890;25.340;2023-01-25T16:36:44;1035.2;;;2.3;62.6
57374;BME280;43964;53.890;25.340;2023-01-25T16:41:31;1035.2;;;2.3;62.6
57374;BME280;43964;53.890;25.340;2023-01-25T16:46:30;1035.1;;;2.2;62.6
57374;BME280;43964;53.890;25.340;2023-01-25T16:51:44;1035.1;;;2.2;62.6
57374;BME280;43964;53.890;25.340;2023-01-25T16:56:31;1035.1;;;2.2;62.7
57374;BME280;43964;53.890;25.340;2023-01-25T17:01:52;1035.1;;;2.2;62.8
57374;BME280;43964;53.890;25.340;2023-01-25T17:06:14;1035.1;;;2.3;62.8
57374;BME280;43964;53.890;25.340;2023-01-25T17:11:52;1035.1;;;2.2;62.8
57374;BME280;43964;53.890;25.340;2023-01-25T17:16:18;1035;;;2.1;62.8
57374;BME280;43964;53.890;25.340;2023-01-25T17:21:42;1035.1;;;2.2;62.8
57374;BME280;43964;53.890;25.340;2023-01-25T17:26:30;1035.1;;;2.3;62.6
57374;BME280;43964;53.890;25.340;2023-01-25T17:31:19;1035.1;;;2.3;62.7
57374;BME280;43964;53.890;25.340;2023-01-25T17:36:32;1035;;;2.4;62.7
57374;BME280;43964;53.890;25.340;2023-01-25T17:41:40;1034.9;;;2.3;62.7
57374;BME280;43964;53.890;25.340;2023-01-25T17:46:56;1034.8;;;2.3;63
57374;BME280;43964;53.890;25.340;2023-01-25T17:51:24;1034.8;;;2.3;62.8
57374;BME280;43964;53.890;25.340;2023-01-25T17:56:56;1034.8;;;2.2;63.1
57374;BME280;43964;53.890;25.340;2023-01-25T18:06:36;1034.7;;;2;63
57374;BME280;43964;53.890;25.340;2023-01-25T18:11:32;1034.7;;;2.1;63.2
57374;BME280;43964;53.890;25.340;2023-01-25T18:16:42;1034.7;;;2.1;63.4
57374;BME280;43964;53.890;25.340;2023-01-25T18:26:42;1034.5;;;2.3;63.1
57374;BME280;43964;53.890;25.340;2023-01-25T18:31:38;1034.4;;;2.2;63.1
57374;BME280;43964;53.890;25.340;2023-01-25T18:36:54;1034.3;;;2.1;63.3
57374;BME280;43964;53.890;25.340;2023-01-25T18:41:54;1034.3;;;2;63.5
57374;BME280;43964;53.890;25.340;2023-01-25T18:46:40;1034.2;;;2;63.5
57374;BME280;43964;53.890;25.340;2023-01-25T18:51:54;1034.2;;;1.9;63.4
57374;BME280;43964;53.890;25.340;2023-01-25T18:56:11;1034.2;;;1.9;63.4
57374;BME280;43964;53.890;25.340;2023-01-25T19:01:42;1034.1;;;1.9;63.8
57374;BME280;43964;53.890;25.340;2023-01-25T19:06:23;1034;;;2;63.8
57374;BME280;43964;53.890;25.340;2023-01-25T19:11:44;1034;;;2;63.9
57374;BME280;43964;53.890;25.340;2023-01-25T19:16:22;1034;;;2;63.9
57374;BME280;43964;53.890;25.340;2023-01-25T19:26:32;1033.9;;;2.1;64
57374;BME280;43964;53.890;25.340;2023-01-25T19:36:29;1033.8;;;2.1;63.9
57374;BME280;43964;53.890;25.340;2023-01-25T19:41:11;1033.8;;;2.1;64.1
57374;BME280;43964;53.890;25.340;2023-01-25T19:46:23;1033.7;;;2.1;64
57374;BME280;43964;53.890;25.340;2023-01-25T19:51:19;1033.7;;;2.1;64.2
57374;BME280;43964;53.890;25.340;2023-01-25T19:56:41;1033.7;;;2.1;64.2
57374;BME280;43964;53.890;25.340;2023-01-25T20:11:30;1033.5;;;2;64.1
57374;BME280;43964;53.890;25.340;2023-01-25T20:16:42;1033.6;;;1.9;64.3
57374;BME280;43964;53.890;25.340;2023-01-25T20:21:32;1033.5;;;2;64.4
57374;BME280;43964;53.890;25.340;2023-01-25T20:26:56;1033.4;;;2;64.3
57374;BME280;43964;53.890;25.340;2023-01-25T20:31:41;1033.4;;;2;64.3
57374;BME280;43964;53.890;25.340;2023-01-25T20:36:20;1033.5;;;2.1;64.4
57374;BME280;43964;53.890;25.340;2023-01-25T20:41:30;1033.5;;;2.1;64.4
57374;BME280;43964;53.890;25.340;2023-01-25T21:01:29;1033.3;;;2.5;64.3
57374;BME280;43964;53.890;25.340;2023-01-25T21:06:32;1033.2;;;2.5;64.3
57374;BME280;43964;53.890;25.340;2023-01-25T21:11:56;1033.2;;;2.5;64.1
57374;BME280;43964;53.890;25.340;2023-01-25T21:16:40;1033.2;;;2.5;64.1
57374;BME280;43964;53.890;25.340;2023-01-25T21:21:40;1033.3;;;2.4;64.3
57374;BME280;43964;53.890;25.340;2023-01-25T21:26:21;1033.3;;;2.4;64.3
57374;BME280;43964;53.890;25.340;2023-01-25T21:41:11;1033.1;;;2.2;64.5
57374;BME280;43964;53.890;25.340;2023-01-25T21:46:54;1033.1;;;2.2;64.5
57374;BME280;43964;53.890;25.340;2023-01-25T21:51:57;1033.1;;;2.2;64.5
57374;BME280;43964;53.890;25.340;2023-01-25T21:56:27;1033;;;2.1;64.6
57374;BME280;43964;53.890;25.340;2023-01-25T22:01:53;1032.9;;;2.1;64.7
57374;BME280;43964;53.890;25.340;2023-01-25T22:06:54;1032.8;;;2.1;64.6
57374;BME280;43964;53.890;25.340;2023-01-25T22:11:10;1032.9;;;2;64.6
57374;BME280;43964;53.890;25.340;2023-01-25T22:16:18;1032.9;;;2;64.6
57374;BME280;43964;53.890;25.340;2023-01-25T22:36:30;1032.7;;;2;65
57374;BME280;43964;53.890;25.340;2023-01-25T22:41:38;1032.6;;;1.9;65
57374;BME280;43964;53.890;25.340;2023-01-25T22:46:11;1032.5;;;1.9;65.3
57374;BME280;43964;53.890;25.340;2023-01-25T22:51:30;1032.4;;;2;65.4
57374;BME280;43964;53.890;25.340;2023-01-25T22:56:52;1032.5;;;1.9;65.4
57374;BME280;43964;53.890;25.340;2023-01-25T23:01:11;1032.4;;;2;65.4
57374;BME280;43964;53.890;25.340;2023-01-25T23:06:44;1032.2;;;1.8;65.2
57374;BME280;43964;53.890;25.340;2023-01-25T23:11:19;1032.2;;;1.8;65.5
57374;BME280;43964;53.890;25.340;2023-01-25T23:16:43;1032.1;;;1.9;65.6
57374;BME280;43964;53.890;25.340;2023-01-25T23:21:19;1032.1;;;1.8;65.8
57374;BME280;43964;53.890;25.340;2023-01-25T23:26:20;1032;;;1.8;65.5
57374;BME280;43964;53.890;25.340;2023-01-25T23:31:38;1031.9;;;1.7;65.9
57374;BME280;43964;53.890;25.340;2023-01-25T23:36:36;1031.8;;;1.7;66
57374;BME280;43964;53.890;25.340;2023-01-25T23:41:54;1031.8;;;1.7;66.2
57374;BME280;43964;53.890;25.340;2023-01-25T23:46:16;1031.8;;;1.8;66.3
57374;BME280;43964;53.890;25.340;2023-01-25T23:51:54;1031.8;;;1.9;66.3
57374;BME280;43964;53.890;25.340;2023-01-25T23:56:20;1031.8;;;2;65.8
